Gilmore, AR (72339)

8:42 AM CST on December 05, 2016 (GMT -0600)
Shelby Forest | | Change Station

Elev 285 ft 35.29 °N, 90.02 °W | Updated 10 seconds ago

Overcast
Overcast
42.3 °F
Feels Like 42 °F
N
3.0
Wind Variable Wind from ESE

Today
High -- | Low -- °F
--% Chance of Precip.
Yesterday
High -- | Low -- °F
Precip. -- in
Pressure 30.02 in
Visibility 10.0 miles
Clouds Overcast 1200 ft
Windchill 42 °F
Dew Point 42 °F
Humidity 98%
Rainfall 0.00 in
Snow Depth Not available.
6:55 AM 4:48 PM
Waxing Crescent, 32% visible
METAR KAWM 051353Z AUTO 08008KT 10SM OVC012 06/03 A3002 RMK AO2 SLP166 T00560033
Pressure 30.02 in
Visibility 10.0 miles
Clouds Overcast 1200 ft
Windchill 42 °F
Dew Point 42 °F
Humidity 98%
Rainfall 0.00 in
Snow Depth Not available.
6:55 AM 4:48 PM
Waxing Crescent, 32% visible
METAR KAWM 051353Z AUTO 08008KT 10SM OVC012 06/03 A3002 RMK AO2 SLP166 T00560033

10-Day Weather Forecast

Almanac

Astronomy

Dec. 05, 2016 Rise Set
Actual Time
Civil Twilight
Nautical Twilight
Astronomical Twilight
Moon
Length of Visible Light
Length of Day
Tomorrow will be .
, % of the Moon is Illuminated

Today's Extremes

State Highs State Lows

Community

WunderPhotos

Upload Photos

1,955,785 photos uploaded!

WunderBlog® & News

Nearby

Air Quality

  Air Quality AQ Index Pollutant
Not available.

Snow Depth

Station Depth Elevation

Earthquake Activity

City Distance Mag. Time & Date
Minimum magnitude displayed is 2.5.

Coastal Water Temperatures

Place Temperature

Stations

Nearby Weather Stations

Station Location Temp. Windchill Dew Point Humidity Wind Precip. Elev Updated Type
                   

Watches & Warnings

There are currently no watches in effect.